Time;durP1;ratioP1;P1;durP2;ratioP2;P2;SDS_P1;SDS_P2;PMS_P1;PMS_P2;Temp;Humidity;BMP_temperature;BMP_pressure;BME280_temperature;BME280_humidity;BME280_pressure;Samples;Min_cycle;Max_cycle;Signal;HPM_P1;HPM_P2
2023/06/09 00:01:09;;;;;;;;;;;16.30;99.90;;;;;;4957660;28;19933;-65
2023/06/09 00:03:41;;;;;;;;;;;16.30;99.90;;;;;;4953576;28;19933;-65
2023/06/09 00:06:16;;;;;;;;;;;16.20;99.90;;;;;;4955751;28;19934;-65
2023/06/09 00:08:51;;;;;;;;;;;16.30;99.90;;;;;;4968543;28;19930;-65
2023/06/09 00:11:24;;;;;;;;;;;16.40;99.90;;;;;;4957945;28;19927;-65
2023/06/09 00:13:51;;;;;;;;;;;16.40;99.90;;;;;;4948477;28;19934;-65
2023/06/09 00:16:23;;;;;;;;;;;16.30;99.90;;;;;;4963481;28;19933;-65
2023/06/09 00:19:01;;;;;;;;;;;16.30;99.90;;;;;;4954262;28;19926;-65
2023/06/09 00:21:33;;;;;;;;;;;16.20;99.90;;;;;;4960456;28;19938;-65
2023/06/09 00:24:05;;;;;;;;;;;16.10;99.90;;;;;;4964424;28;20322;-65
2023/06/09 00:26:36;;;;;;;;;;;16.00;99.90;;;;;;4971228;28;19933;-65
2023/06/09 00:29:08;;;;;;;;;;;15.90;99.90;;;;;;4959943;28;20334;-65
2023/06/09 00:31:41;;;;;;;;;;;15.80;99.90;;;;;;4938436;28;20287;-65
2023/06/09 00:34:14;;;;;;;;;;;15.70;99.90;;;;;;4959851;28;20390;-66
2023/06/09 00:36:47;;;;;;;;;;;15.50;99.90;;;;;;4945708;28;19994;-65
2023/06/09 00:39:19;;;;;;;;;;;15.40;99.90;;;;;;4952764;28;19934;-65
2023/06/09 00:41:51;;;;;;;;;;;15.40;99.90;;;;;;4952150;28;19932;-65
2023/06/09 00:44:22;;;;;;;;;;;15.40;99.90;;;;;;4952363;28;19930;-65
2023/06/09 00:46:54;;;;;;;;;;;15.40;99.90;;;;;;4955015;28;20025;-65
2023/06/09 00:49:26;;;;;;;;;;;15.40;99.90;;;;;;4959629;28;19982;-65
2023/06/09 00:51:57;;;;;;;;;;;15.30;99.90;;;;;;4970982;28;20322;-65
2023/06/09 00:54:29;;;;;;;;;;;15.40;99.90;;;;;;4952736;28;19926;-65
2023/06/09 00:57:02;;;;;;;;;;;15.30;99.90;;;;;;4955907;28;19927;-65
2023/06/09 00:59:34;;;;;;;;;;;15.30;99.90;;;;;;4940531;28;19926;-65
2023/06/09 01:02:07;;;;;;;;;;;15.30;99.90;;;;;;4941521;28;19933;-65
2023/06/09 01:04:40;;;;;;;;;;;15.30;99.90;;;;;;4948365;28;20387;-65
2023/06/09 01:07:20;;;;;;;;;;;15.30;99.90;;;;;;4945967;28;19937;-65
2023/06/09 01:09:57;;;;;;;;;;;15.30;99.90;;;;;;4965190;28;20497;-65
2023/06/09 01:12:35;;;;;;;;;;;15.30;99.90;;;;;;4958925;28;20021;-65
2023/06/09 01:15:17;;;;;;;;;;;15.40;99.90;;;;;;4952614;28;19973;-65
2023/06/09 01:17:48;;;;;;;;;;;15.40;99.90;;;;;;4954745;28;19930;-65
2023/06/09 01:20:39;;;;;;;;;;;15.40;99.90;;;;;;4948922;28;19937;-66
2023/06/09 01:23:30;;;;;;;;;;;15.40;99.90;;;;;;4951300;28;19933;-66
2023/06/09 01:26:02;;;;;;;;;;;15.20;99.90;;;;;;4954758;28;19931;-65
2023/06/09 01:28:35;;;;;;;;;;;15.20;99.90;;;;;;4952848;28;19969;-65
2023/06/09 01:31:02;;;;;;;;;;;15.10;99.90;;;;;;4952799;28;19933;-65
2023/06/09 01:33:29;;;;;;;;;;;15.10;99.90;;;;;;4953168;28;20373;-65
2023/06/09 01:36:03;;;;;;;;;;;15.10;99.90;;;;;;4957276;28;19930;-65
2023/06/09 01:38:30;;;;;;;;;;;15.00;99.90;;;;;;4952471;28;19930;-65
2023/06/09 01:40:59;;;;;;;;;;;15.00;99.90;;;;;;4951541;28;19934;-65
2023/06/09 01:43:26;;;;;;;;;;;15.00;99.90;;;;;;4951406;28;19985;-65
2023/06/09 01:45:58;;;;;;;;;;;15.00;99.90;;;;;;4936821;28;19932;-65
2023/06/09 01:48:54;;;;;;;;;;;15.00;99.90;;;;;;4952279;28;19942;-65
2023/06/09 01:51:30;;;;;;;;;;;14.90;99.90;;;;;;4953319;28;20028;-65
2023/06/09 01:54:05;;;;;;;;;;;14.90;99.90;;;;;;4953610;28;19934;-65
2023/06/09 01:56:41;;;;;;;;;;;14.80;99.90;;;;;;4966982;28;20478;-65
2023/06/09 01:59:11;;;;;;;;;;;14.70;99.90;;;;;;4956761;28;19926;-65
2023/06/09 02:01:44;;;;;;;;;;;14.50;99.90;;;;;;4956531;28;19938;-65
2023/06/09 02:04:17;;;;;;;;;;;14.50;99.90;;;;;;4947641;28;19997;-65
2023/06/09 02:06:49;;;;;;;;;;;14.40;99.90;;;;;;4958252;28;20311;-65
2023/06/09 02:09:21;;;;;;;;;;;14.30;99.90;;;;;;4957112;28;20021;-65
2023/06/09 02:11:53;;;;;;;;;;;14.30;99.90;;;;;;4959252;28;19953;-65
2023/06/09 02:14:32;;;;;;;;;;;14.30;99.90;;;;;;4949226;28;19933;-65
2023/06/09 02:17:04;;;;;;;;;;;14.20;99.90;;;;;;4952931;28;20309;-65
2023/06/09 02:19:38;;;;;;;;;;;14.10;99.90;;;;;;4955918;28;19932;-65
2023/06/09 02:22:35;;;;;;;;;;;14.00;99.90;;;;;;4966012;28;19981;-67
2023/06/09 02:25:07;;;;;;;;;;;14.10;99.90;;;;;;4931113;29;19926;-66
2023/06/09 02:27:40;;;;;;;;;;;14.20;99.90;;;;;;4949659;28;19930;-66
2023/06/09 02:30:11;;;;;;;;;;;14.20;99.90;;;;;;4925352;29;20376;-67
2023/06/09 02:32:43;;;;;;;;;;;14.10;99.90;;;;;;4924638;29;20023;-67
2023/06/09 02:35:10;;;;;;;;;;;14.10;99.90;;;;;;4907945;29;19974;-67
2023/06/09 02:37:37;;;;;;;;;;;14.00;99.90;;;;;;4938886;29;19933;-67
2023/06/09 02:40:10;;;;;;;;;;;14.00;99.90;;;;;;4920245;29;19962;-67
2023/06/09 02:42:41;;;;;;;;;;;14.00;99.90;;;;;;4930930;29;19985;-67
2023/06/09 02:45:13;;;;;;;;;;;13.90;99.90;;;;;;4930012;29;20420;-66
2023/06/09 02:47:45;;;;;;;;;;;14.00;99.90;;;;;;4929911;29;19934;-66
2023/06/09 02:50:11;;;;;;;;;;;14.00;99.90;;;;;;4937769;29;19927;-66
2023/06/09 02:52:39;;;;;;;;;;;14.00;99.90;;;;;;4937556;29;19927;-67
2023/06/09 02:55:12;;;;;;;;;;;14.00;99.90;;;;;;4923525;29;19931;-68
2023/06/09 02:57:47;;;;;;;;;;;13.90;99.90;;;;;;4920327;29;20031;-66
2023/06/09 03:00:22;;;;;;;;;;;13.90;99.90;;;;;;4920682;29;19926;-68
2023/06/09 03:02:56;;;;;;;;;;;13.90;99.90;;;;;;4921886;29;19927;-66
2023/06/09 03:05:31;;;;;;;;;;;13.80;99.90;;;;;;4934690;29;19982;-66
2023/06/09 03:08:03;;;;;;;;;;;13.80;99.90;;;;;;4918305;29;20025;-66
2023/06/09 03:10:37;;;;;;;;;;;13.80;99.90;;;;;;4936166;29;20030;-67
2023/06/09 03:13:11;;;;;;;;;;;13.80;99.90;;;;;;4920748;29;19930;-68
2023/06/09 03:15:47;;;;;;;;;;;13.80;99.90;;;;;;4922236;29;20555;-68
2023/06/09 03:18:19;;;;;;;;;;;13.80;99.90;;;;;;4926802;29;19927;-68
2023/06/09 03:20:48;;;;;;;;;;;13.80;99.90;;;;;;4937775;29;19930;-68
2023/06/09 03:23:21;;;;;;;;;;;13.80;99.90;;;;;;4939077;29;19926;-68
2023/06/09 03:25:52;;;;;;;;;;;13.80;99.90;;;;;;4936953;29;20027;-68
2023/06/09 03:28:27;;;;;;;;;;;13.80;99.90;;;;;;4934903;29;20402;-68
2023/06/09 03:30:59;;;;;;;;;;;13.70;99.90;;;;;;4933204;29;19934;-67
2023/06/09 03:33:31;;;;;;;;;;;13.70;99.90;;;;;;4919041;29;20322;-68
2023/06/09 03:35:58;;;;;;;;;;;13.70;99.90;;;;;;4936204;29;19927;-68
2023/06/09 03:38:28;;;;;;;;;;;13.60;99.90;;;;;;4936353;29;19927;-67
2023/06/09 03:41:00;;;;;;;;;;;13.60;99.90;;;;;;4948802;29;20002;-66
2023/06/09 03:43:32;;;;;;;;;;;13.60;99.90;;;;;;4932230;29;19931;-69
2023/06/09 03:46:03;;;;;;;;;;;13.60;99.90;;;;;;4922514;29;20029;-66
2023/06/09 03:48:36;;;;;;;;;;;13.50;99.90;;;;;;4934731;29;19927;-67
2023/06/09 03:51:08;;;;;;;;;;;13.50;99.90;;;;;;4934930;29;19930;-68
2023/06/09 03:53:40;;;;;;;;;;;13.40;99.90;;;;;;4934740;29;20376;-66
2023/06/09 03:56:13;;;;;;;;;;;13.40;99.90;;;;;;4924520;29;20288;-67
2023/06/09 03:58:46;;;;;;;;;;;13.40;99.90;;;;;;4937462;29;19985;-66
2023/06/09 04:01:21;;;;;;;;;;;13.40;99.90;;;;;;4920977;29;19981;-67
2023/06/09 04:03:53;;;;;;;;;;;13.50;99.90;;;;;;4936001;29;19926;-67
2023/06/09 04:06:26;;;;;;;;;;;13.50;99.90;;;;;;4935272;29;19953;-67
2023/06/09 04:08:57;;;;;;;;;;;13.50;99.90;;;;;;4933933;29;19933;-66
2023/06/09 04:11:30;;;;;;;;;;;13.50;99.90;;;;;;4948296;28;20018;-67
2023/06/09 04:14:03;;;;;;;;;;;13.50;99.90;;;;;;4933939;29;19926;-67
2023/06/09 04:16:35;;;;;;;;;;;13.50;99.90;;;;;;4919643;29;19933;-67
2023/06/09 04:19:03;;;;;;;;;;;13.60;99.90;;;;;;4936794;29;19933;-66
2023/06/09 04:21:30;;;;;;;;;;;13.50;99.90;;;;;;4935233;29;19927;-66
2023/06/09 04:24:01;;;;;;;;;;;13.60;99.90;;;;;;4927979;29;19926;-67
2023/06/09 04:26:33;;;;;;;;;;;13.60;99.90;;;;;;4936394;29;19981;-67
2023/06/09 04:29:09;;;;;;;;;;;13.70;99.90;;;;;;4934971;29;19991;-68
2023/06/09 04:31:44;;;;;;;;;;;13.70;99.90;;;;;;4924270;29;19934;-67
2023/06/09 04:34:17;;;;;;;;;;;13.70;99.90;;;;;;4935189;29;19934;-67
2023/06/09 04:36:52;;;;;;;;;;;13.80;99.90;;;;;;4933169;29;20518;-69
2023/06/09 04:39:28;;;;;;;;;;;13.80;99.90;;;;;;4936942;29;20029;-67
2023/06/09 04:41:55;;;;;;;;;;;13.90;99.90;;;;;;4936407;29;19926;-67
2023/06/09 04:44:28;;;;;;;;;;;13.90;99.90;;;;;;4922829;29;19927;-67
2023/06/09 04:47:02;;;;;;;;;;;13.90;99.90;;;;;;4935144;29;19927;-66
2023/06/09 04:49:31;;;;;;;;;;;13.90;99.90;;;;;;4935274;29;20013;-67
2023/06/09 04:52:02;;;;;;;;;;;14.00;99.90;;;;;;4934132;29;19962;-67
2023/06/09 04:54:34;;;;;;;;;;;13.90;99.90;;;;;;4917359;29;19927;-67
2023/06/09 04:57:09;;;;;;;;;;;13.90;99.90;;;;;;4948673;29;19930;-66
2023/06/09 04:59:41;;;;;;;;;;;13.90;99.90;;;;;;4946844;29;19926;-68
2023/06/09 05:02:15;;;;;;;;;;;13.90;99.90;;;;;;4918733;29;20422;-67
2023/06/09 05:04:46;;;;;;;;;;;13.90;99.90;;;;;;4918320;29;20025;-68
2023/06/09 05:07:14;;;;;;;;;;;13.90;99.90;;;;;;4933754;29;19934;-66
2023/06/09 05:09:42;;;;;;;;;;;13.90;99.90;;;;;;4935826;29;19926;-66
2023/06/09 05:12:14;;;;;;;;;;;14.00;99.90;;;;;;4931044;29;19930;-67
2023/06/09 05:14:42;;;;;;;;;;;14.00;99.90;;;;;;4935271;29;19927;-67
2023/06/09 05:17:14;;;;;;;;;;;14.10;99.90;;;;;;4926349;29;19931;-66
2023/06/09 05:19:46;;;;;;;;;;;14.20;99.90;;;;;;4911878;29;20395;-66
2023/06/09 05:22:14;;;;;;;;;;;14.20;99.90;;;;;;4933365;29;20383;-67
2023/06/09 05:24:46;;;;;;;;;;;14.30;99.90;;;;;;4918470;29;19927;-67
2023/06/09 05:27:18;;;;;;;;;;;14.30;99.90;;;;;;4931690;29;20399;-67
2023/06/09 05:29:50;;;;;;;;;;;14.30;99.90;;;;;;4920481;29;19933;-67
2023/06/09 05:32:18;;;;;;;;;;;14.40;99.90;;;;;;4935873;29;20346;-66
2023/06/09 05:34:50;;;;;;;;;;;14.40;99.90;;;;;;4934457;29;20335;-67
2023/06/09 05:37:22;;;;;;;;;;;14.30;99.90;;;;;;4924001;29;19934;-67
2023/06/09 05:39:49;;;;;;;;;;;14.40;99.90;;;;;;4934382;29;19946;-66
2023/06/09 05:42:21;;;;;;;;;;;14.40;99.90;;;;;;4944661;28;20395;-67
2023/06/09 05:44:48;;;;;;;;;;;14.40;99.90;;;;;;4945421;29;19937;-67
2023/06/09 05:47:15;;;;;;;;;;;14.40;99.90;;;;;;4939240;29;20025;-68
2023/06/09 05:49:47;;;;;;;;;;;14.60;99.90;;;;;;4933595;29;20487;-67
2023/06/09 05:52:18;;;;;;;;;;;14.60;99.90;;;;;;4935670;29;19933;-67
2023/06/09 05:54:50;;;;;;;;;;;14.60;99.90;;;;;;4935560;29;20296;-67
2023/06/09 05:57:25;;;;;;;;;;;14.70;99.90;;;;;;4933973;29;20001;-66
2023/06/09 05:59:57;;;;;;;;;;;14.70;99.90;;;;;;4947835;29;19926;-67
2023/06/09 06:02:38;;;;;;;;;;;14.80;99.90;;;;;;4929294;29;19936;-68
2023/06/09 06:05:06;;;;;;;;;;;14.90;99.90;;;;;;4948032;29;19935;-67
2023/06/09 06:07:38;;;;;;;;;;;15.00;99.90;;;;;;4930745;29;19931;-67
2023/06/09 06:10:10;;;;;;;;;;;15.10;99.90;;;;;;4943575;29;19998;-66
2023/06/09 06:12:41;;;;;;;;;;;15.20;99.90;;;;;;4917306;29;19933;-67
2023/06/09 06:15:13;;;;;;;;;;;15.20;99.90;;;;;;4933166;29;19936;-67
2023/06/09 06:17:45;;;;;;;;;;;15.30;99.90;;;;;;4938322;29;19931;-68
2023/06/09 06:20:17;;;;;;;;;;;15.40;99.90;;;;;;4941328;29;19927;-68
2023/06/09 06:22:44;;;;;;;;;;;15.50;99.90;;;;;;4935313;29;20042;-67
2023/06/09 06:25:17;;;;;;;;;;;15.60;99.90;;;;;;4926416;29;20026;-69
2023/06/09 06:27:49;;;;;;;;;;;15.70;99.90;;;;;;4942736;29;20014;-66
2023/06/09 06:30:21;;;;;;;;;;;15.90;99.90;;;;;;4912722;29;20311;-68
2023/06/09 06:32:53;;;;;;;;;;;16.00;99.90;;;;;;4935065;29;19986;-68
2023/06/09 06:35:25;;;;;;;;;;;16.10;99.90;;;;;;4942278;29;19950;-68
2023/06/09 06:37:57;;;;;;;;;;;16.30;99.90;;;;;;4933410;28;20311;-68
2023/06/09 06:40:29;;;;;;;;;;;16.50;99.90;;;;;;4936772;29;19939;-67
2023/06/09 06:42:56;;;;;;;;;;;16.60;99.90;;;;;;4955722;29;19969;-68
2023/06/09 06:45:44;;;;;;;;;;;16.70;99.90;;;;;;4918603;29;19931;-66
2023/06/09 06:48:16;;;;;;;;;;;16.80;99.90;;;;;;4943752;29;20307;-68
2023/06/09 06:50:48;;;;;;;;;;;17.00;99.90;;;;;;4911128;29;19933;-68
2023/06/09 06:53:19;;;;;;;;;;;17.10;99.90;;;;;;4948046;29;19932;-67
2023/06/09 06:55:51;;;;;;;;;;;17.20;99.90;;;;;;4948360;29;19934;-67
2023/06/09 06:58:27;;;;;;;;;;;17.30;99.90;;;;;;4926123;29;19927;-67
2023/06/09 07:01:00;;;;;;;;;;;17.40;99.90;;;;;;4928888;29;19970;-67
2023/06/09 07:03:35;;;;;;;;;;;17.60;99.90;;;;;;4940990;29;19927;-67
2023/06/09 07:06:02;;;;;;;;;;;17.70;99.90;;;;;;4944688;29;19926;-68
2023/06/09 07:08:35;;;;;;;;;;;17.80;99.90;;;;;;4930303;29;19961;-66
2023/06/09 07:11:07;;;;;;;;;;;17.90;99.90;;;;;;4943302;29;19931;-68
2023/06/09 07:13:34;;;;;;;;;;;18.10;99.90;;;;;;4934991;29;19932;-68
2023/06/09 07:16:06;;;;;;;;;;;18.10;99.90;;;;;;4937156;29;20355;-67
2023/06/09 07:18:37;;;;;;;;;;;18.30;99.90;;;;;;4946623;29;20415;-66
2023/06/09 07:21:04;;;;;;;;;;;18.40;99.90;;;;;;4936290;29;19930;-69
2023/06/09 07:23:36;;;;;;;;;;;18.40;99.90;;;;;;4947653;28;19991;-67
2023/06/09 07:26:07;;;;;;;;;;;18.50;99.90;;;;;;4936747;29;19970;-68
2023/06/09 07:28:39;;;;;;;;;;;18.60;99.90;;;;;;4933950;29;19927;-67
2023/06/09 07:31:06;;;;;;;;;;;18.70;99.90;;;;;;4943391;29;19934;-67
2023/06/09 07:33:40;;;;;;;;;;;18.80;99.90;;;;;;4940303;29;20066;-67
2023/06/09 07:36:13;;;;;;;;;;;18.90;99.90;;;;;;4938636;29;20314;-67
2023/06/09 07:38:46;;;;;;;;;;;19.00;99.90;;;;;;4947797;28;19937;-67
2023/06/09 07:41:18;;;;;;;;;;;19.10;99.90;;;;;;4927302;28;19930;-67
2023/06/09 07:43:50;;;;;;;;;;;19.20;99.90;;;;;;4937134;29;20030;-67
2023/06/09 07:46:22;;;;;;;;;;;19.30;99.90;;;;;;4947317;28;19937;-68
2023/06/09 07:48:49;;;;;;;;;;;19.40;99.90;;;;;;4943238;29;19993;-67
2023/06/09 07:51:21;;;;;;;;;;;19.50;99.90;;;;;;4943423;29;19927;-69
2023/06/09 07:53:48;;;;;;;;;;;19.60;99.90;;;;;;4951619;29;19934;-67
2023/06/09 07:56:20;;;;;;;;;;;19.70;99.90;;;;;;4946778;29;19933;-69
2023/06/09 07:58:49;;;;;;;;;;;19.80;99.90;;;;;;4945715;29;19993;-68
2023/06/09 08:01:21;;;;;;;;;;;19.90;99.90;;;;;;4951724;29;19970;-67
2023/06/09 08:03:54;;;;;;;;;;;20.00;99.90;;;;;;4947185;28;20029;-68
2023/06/09 08:06:28;;;;;;;;;;;20.10;99.90;;;;;;4947834;29;19930;-67
2023/06/09 08:09:00;;;;;;;;;;;20.30;99.90;;;;;;4946574;29;19927;-66
2023/06/09 08:11:32;;;;;;;;;;;20.40;99.90;;;;;;4946422;28;19927;-68
2023/06/09 08:14:04;;;;;;;;;;;20.40;99.90;;;;;;4935962;28;19962;-67
2023/06/09 08:16:37;;;;;;;;;;;20.60;99.90;;;;;;4951169;28;19936;-66
2023/06/09 08:19:09;;;;;;;;;;;20.70;99.90;;;;;;4942054;28;19926;-67
2023/06/09 08:21:43;;;;;;;;;;;20.80;99.90;;;;;;4947802;28;19934;-66
2023/06/09 08:24:11;;;;;;;;;;;20.90;99.90;;;;;;4954653;23;19978;-63
2023/06/09 08:26:38;;;;;;;;;;;21.00;99.90;;;;;;4959723;28;19930;-63
2023/06/09 08:29:06;;;;;;;;;;;21.10;99.90;;;;;;4959007;28;20385;-63
2023/06/09 08:31:39;;;;;;;;;;;21.20;99.90;;;;;;4958285;28;19996;-63
2023/06/09 08:34:11;;;;;;;;;;;21.40;99.90;;;;;;4942347;28;19926;-64
2023/06/09 08:36:38;;;;;;;;;;;21.40;99.90;;;;;;4962486;28;20414;-64
2023/06/09 08:39:10;;;;;;;;;;;21.50;99.90;;;;;;4957737;28;19926;-63
2023/06/09 08:41:42;;;;;;;;;;;21.60;99.90;;;;;;4954149;28;20379;-63
2023/06/09 08:44:15;;;;;;;;;;;21.70;99.90;;;;;;4955661;28;19927;-63
2023/06/09 08:46:48;;;;;;;;;;;21.80;99.90;;;;;;4935892;28;19930;-64
2023/06/09 08:49:20;;;;;;;;;;;21.90;99.90;;;;;;4950421;28;20020;-63
2023/06/09 08:51:52;;;;;;;;;;;22.00;99.90;;;;;;4956688;28;19937;-63
2023/06/09 08:54:25;;;;;;;;;;;22.00;99.90;;;;;;4963274;28;19933;-63
2023/06/09 08:56:57;;;;;;;;;;;22.10;99.90;;;;;;4960046;28;20349;-63
2023/06/09 08:59:33;;;;;;;;;;;22.20;99.90;;;;;;4941017;28;19934;-64
2023/06/09 09:02:01;;;;;;;;;;;22.30;99.90;;;;;;4961043;28;20025;-64
2023/06/09 09:04:33;;;;;;;;;;;22.40;99.90;;;;;;4946964;28;20434;-63
2023/06/09 09:07:08;;;;;;;;;;;22.30;99.90;;;;;;4953432;28;19927;-64
2023/06/09 09:09:40;;;;;;;;;;;22.30;99.90;;;;;;4953017;28;19926;-63
2023/06/09 09:12:13;;;;;;;;;;;22.40;99.90;;;;;;4938949;28;20323;-63
2023/06/09 09:14:45;;;;;;;;;;;22.60;99.90;;;;;;4945415;28;19942;-63
2023/06/09 09:17:17;;;;;;;;;;;22.80;99.90;;;;;;4951105;28;19926;-64
2023/06/09 09:19:49;;;;;;;;;;;22.90;99.90;;;;;;4943786;28;19965;-63
2023/06/09 09:22:20;;;;;;;;;;;23.10;99.90;;;;;;4953544;28;20020;-63
2023/06/09 09:24:53;;;;;;;;;;;23.20;99.90;;;;;;4925447;28;19926;-63
2023/06/09 09:27:26;;;;;;;;;;;23.20;99.90;;;;;;4952497;28;19981;-64
2023/06/09 09:29:57;;;;;;;;;;;23.30;99.90;;;;;;4934846;28;19932;-64
2023/06/09 09:32:29;;;;;;;;;;;23.30;99.90;;;;;;4945184;28;20295;-67
2023/06/09 09:43:46;;;;;;;;;;;23.80;99.90;;;;;;4945275;23;20009;-65
2023/06/09 09:46:19;;;;;;;;;;;24.00;99.90;;;;;;4946196;28;19933;-64
2023/06/09 09:48:51;;;;;;;;;;;24.10;99.90;;;;;;4931745;29;19938;-65
2023/06/09 09:51:23;;;;;;;;;;;24.20;99.90;;;;;;4929267;28;20041;-65
2023/06/09 09:53:57;;;;;;;;;;;24.20;99.90;;;;;;4947566;29;20301;-65
2023/06/09 09:56:29;;;;;;;;;;;24.30;99.90;;;;;;4915632;29;19927;-65
2023/06/09 09:59:02;;;;;;;;;;;24.50;99.90;;;;;;4943768;29;20021;-64
2023/06/09 10:01:34;;;;;;;;;;;24.60;99.90;;;;;;4943394;29;20017;-65
2023/06/09 10:04:07;;;;;;;;;;;24.70;99.90;;;;;;4917833;29;20045;-64
2023/06/09 10:06:39;;;;;;;;;;;24.80;99.90;;;;;;4945256;29;19989;-65
2023/06/09 10:09:12;;;;;;;;;;;24.90;99.90;;;;;;4944644;29;20033;-65
2023/06/09 10:11:39;;;;;;;;;;;24.90;99.90;;;;;;4945196;28;20381;-65
2023/06/09 10:14:10;;;;;;;;;;;25.00;99.90;;;;;;4932024;29;19926;-65
2023/06/09 10:16:43;;;;;;;;;;;25.00;99.90;;;;;;4947311;28;19927;-65
2023/06/09 10:19:10;;;;;;;;;;;25.00;99.90;;;;;;4952132;28;19935;-66
2023/06/09 10:21:42;;;;;;;;;;;25.10;99.90;;;;;;4940315;29;19931;-65
2023/06/09 10:24:10;;;;;;;;;;;25.30;99.90;;;;;;4950568;29;19989;-65
2023/06/09 10:26:43;;;;;;;;;;;25.40;99.90;;;;;;4940254;29;21309;-65
2023/06/09 10:29:15;;;;;;;;;;;25.50;99.90;;;;;;4935496;29;19926;-65
2023/06/09 10:31:44;;;;;;;;;;;25.40;99.90;;;;;;4946674;29;20017;-66
2023/06/09 10:34:16;;;;;;;;;;;25.50;99.90;;;;;;4946246;29;19926;-67
2023/06/09 10:36:43;;;;;;;;;;;25.60;98.90;;;;;;4953565;29;19927;-64
2023/06/09 10:39:19;;;;;;;;;;;25.70;98.00;;;;;;4935839;29;19926;-64
2023/06/09 10:42:17;;;;;;;;;;;25.70;99.90;;;;;;4934555;29;19933;-64
2023/06/09 10:44:57;;;;;;;;;;;25.80;99.90;;;;;;4937771;29;20014;-64
2023/06/09 10:47:40;;;;;;;;;;;25.70;99.90;;;;;;4947290;29;20299;-64
2023/06/09 10:50:24;;;;;;;;;;;25.80;99.80;;;;;;4950026;29;19930;-64
2023/06/09 10:52:57;;;;;;;;;;;25.80;98.20;;;;;;4949807;28;19989;-64
2023/06/09 10:55:30;;;;;;;;;;;25.80;97.30;;;;;;4937664;28;19930;-64
2023/06/09 10:58:01;;;;;;;;;;;25.90;98.00;;;;;;4947305;28;19938;-64
2023/06/09 11:20:18;;;;;;;;;;;26.40;94.10;;;;;;5766216;23;19982;-84
2023/06/09 11:22:45;;;;;;;;;;;26.40;93.90;;;;;;4922429;29;20411;-86
2023/06/09 11:25:14;;;;;;;;;;;26.50;95.10;;;;;;4931669;29;20011;-87
2023/06/09 11:27:43;;;;;;;;;;;26.60;95.30;;;;;;4939923;29;20025;-87
2023/06/09 11:31:00;;;;;;;;;;;26.80;94.60;;;;;;4907414;29;20336;-88
2023/06/09 11:33:46;;;;;;;;;;;27.00;93.90;;;;;;4900397;29;19988;-87
2023/06/09 11:36:23;;;;;;;;;;;27.00;92.90;;;;;;4898039;29;20326;-86
2023/06/09 11:38:50;;;;;;;;;;;27.00;95.10;;;;;;4892986;29;19978;-86
2023/06/09 11:41:21;;;;;;;;;;;26.60;93.90;;;;;;4917061;29;19927;-86
2023/06/09 11:43:54;;;;;;;;;;;26.60;94.80;;;;;;4919976;29;19934;-86
2023/06/09 12:16:11;;;;;;;;;;;28.10;90.30;;;;;;4911168;29;19931;-64
2023/06/09 12:18:43;;;;;;;;;;;28.10;90.90;;;;;;4913183;29;19927;-64
2023/06/09 12:21:14;;;;;;;;;;;28.30;91.00;;;;;;4914433;29;19931;-64
2023/06/09 12:23:53;;;;;;;;;;;28.30;91.10;;;;;;4914681;29;20392;-64
2023/06/09 12:26:25;;;;;;;;;;;28.20;90.80;;;;;;4912627;29;19931;-65
2023/06/09 12:28:57;;;;;;;;;;;28.30;90.80;;;;;;4913572;29;19935;-65
2023/06/09 12:31:24;;;;;;;;;;;28.30;87.90;;;;;;4911509;29;20458;-65
2023/06/09 12:34:00;;;;;;;;;;;28.30;87.80;;;;;;4925475;29;20030;-65
2023/06/09 12:36:38;;;;;;;;;;;28.30;87.60;;;;;;4915219;29;19975;-66
2023/06/09 12:39:17;;;;;;;;;;;28.40;86.70;;;;;;4912596;29;19931;-64
2023/06/09 12:41:49;;;;;;;;;;;28.60;86.00;;;;;;4913792;29;20022;-64
2023/06/09 12:44:22;;;;;;;;;;;28.70;87.70;;;;;;4914320;29;19927;-65
2023/06/09 12:46:57;;;;;;;;;;;28.80;86.60;;;;;;4908521;29;19941;-64
2023/06/09 12:49:30;;;;;;;;;;;28.90;86.00;;;;;;4908804;29;19942;-65
2023/06/09 12:52:00;;;;;;;;;;;28.50;84.00;;;;;;4908215;29;19932;-65
2023/06/09 12:54:32;;;;;;;;;;;28.30;84.50;;;;;;4909807;29;19928;-65
2023/06/09 12:56:59;;;;;;;;;;;28.30;85.10;;;;;;4907290;29;19974;-65
2023/06/09 12:59:30;;;;;;;;;;;28.40;85.30;;;;;;4908861;29;19931;-65
2023/06/09 13:02:02;;;;;;;;;;;28.30;83.90;;;;;;4908565;29;19934;-65
2023/06/09 13:04:34;;;;;;;;;;;28.50;82.80;;;;;;4910224;29;19935;-65
2023/06/09 13:07:06;;;;;;;;;;;28.60;83.40;;;;;;4916245;23;19935;-65
2023/06/09 13:09:37;;;;;;;;;;;28.70;83.70;;;;;;4902827;29;20466;-65
2023/06/09 13:12:10;;;;;;;;;;;28.90;80.80;;;;;;4920784;29;19936;-65
2023/06/09 13:14:42;;;;;;;;;;;29.00;80.10;;;;;;4906257;29;19927;-65
2023/06/09 13:17:13;;;;;;;;;;;29.10;80.80;;;;;;4902653;29;19928;-65
2023/06/09 13:19:45;;;;;;;;;;;29.00;79.80;;;;;;4918009;29;19927;-65
2023/06/09 13:22:16;;;;;;;;;;;29.00;78.50;;;;;;4911811;29;19931;-65
2023/06/09 13:24:48;;;;;;;;;;;28.90;78.50;;;;;;4913983;29;19979;-65
2023/06/09 13:27:15;;;;;;;;;;;28.90;77.60;;;;;;4903806;29;19935;-65
2023/06/09 13:29:47;;;;;;;;;;;29.00;80.20;;;;;;4901650;29;19937;-65
2023/06/09 13:32:19;;;;;;;;;;;29.20;79.70;;;;;;4910076;29;20342;-65
2023/06/09 13:34:50;;;;;;;;;;;29.30;79.50;;;;;;4920537;29;19928;-65
2023/06/09 13:37:18;;;;;;;;;;;29.40;78.10;;;;;;4911244;29;20396;-65
2023/06/09 13:39:50;;;;;;;;;;;29.70;76.00;;;;;;4911596;29;20402;-65
2023/06/09 13:42:22;;;;;;;;;;;29.80;72.70;;;;;;4909148;29;20027;-65
2023/06/09 13:44:54;;;;;;;;;;;29.80;71.60;;;;;;4909452;29;20011;-63
2023/06/09 13:47:26;;;;;;;;;;;29.90;72.90;;;;;;4902970;29;19935;-65
2023/06/09 13:49:58;;;;;;;;;;;30.00;73.30;;;;;;4910389;29;19932;-65
2023/06/09 13:52:29;;;;;;;;;;;30.20;72.00;;;;;;4911594;29;20170;-65
2023/06/09 13:55:01;;;;;;;;;;;30.30;70.90;;;;;;4908424;29;20386;-65
2023/06/09 13:57:32;;;;;;;;;;;30.30;72.40;;;;;;4910412;29;19928;-65
2023/06/09 14:00:05;;;;;;;;;;;30.30;71.20;;;;;;4910868;29;19934;-65
2023/06/09 14:02:38;;;;;;;;;;;30.30;72.10;;;;;;4909931;29;19966;-65
2023/06/09 14:05:14;;;;;;;;;;;30.20;72.40;;;;;;4906272;29;19935;-65
2023/06/09 14:07:41;;;;;;;;;;;30.10;70.00;;;;;;4904348;29;20387;-65
2023/06/09 14:10:14;;;;;;;;;;;29.90;68.80;;;;;;4912417;29;19934;-65
2023/06/09 14:12:47;;;;;;;;;;;29.80;69.00;;;;;;4917033;29;19935;-65
2023/06/09 14:15:19;;;;;;;;;;;29.90;68.90;;;;;;4909912;29;19928;-65
2023/06/09 14:17:51;;;;;;;;;;;29.80;68.40;;;;;;4894253;29;19961;-65
2023/06/09 14:20:24;;;;;;;;;;;29.90;70.20;;;;;;4904084;29;19931;-65
2023/06/09 14:22:58;;;;;;;;;;;30.00;71.10;;;;;;4905755;29;20018;-65
2023/06/09 14:25:30;;;;;;;;;;;30.20;69.40;;;;;;4907804;29;19931;-64
2023/06/09 14:28:02;;;;;;;;;;;30.40;69.30;;;;;;4908722;29;19931;-65
2023/06/09 14:30:29;;;;;;;;;;;30.50;68.10;;;;;;4905166;29;19931;-65
2023/06/09 14:33:00;;;;;;;;;;;30.40;67.80;;;;;;4904581;29;19928;-65
2023/06/09 14:35:32;;;;;;;;;;;30.20;67.80;;;;;;4902945;29;19928;-65
2023/06/09 14:38:04;;;;;;;;;;;30.10;65.70;;;;;;4913747;29;19928;-65
2023/06/09 14:40:36;;;;;;;;;;;30.20;66.40;;;;;;4917251;29;19932;-65
2023/06/09 14:43:09;;;;;;;;;;;30.30;66.60;;;;;;4919150;29;20299;-65
2023/06/09 14:45:41;;;;;;;;;;;30.30;66.40;;;;;;4909860;29;20348;-65
2023/06/09 14:48:12;;;;;;;;;;;30.50;65.70;;;;;;4911270;29;19927;-65
2023/06/09 14:50:47;;;;;;;;;;;30.80;64.70;;;;;;4907959;29;19962;-65
2023/06/09 14:53:19;;;;;;;;;;;30.90;63.80;;;;;;4910130;29;19927;-65
2023/06/09 14:55:51;;;;;;;;;;;30.90;62.70;;;;;;4907663;29;19928;-65
2023/06/09 14:58:23;;;;;;;;;;;31.10;62.30;;;;;;4906656;29;19931;-65
2023/06/09 15:00:49;;;;;;;;;;;31.30;61.00;;;;;;4915344;29;19928;-65
2023/06/09 15:03:17;;;;;;;;;;;31.40;60.90;;;;;;4905111;29;19936;-65
2023/06/09 15:05:48;;;;;;;;;;;31.60;60.30;;;;;;4906350;29;19928;-65
2023/06/09 15:08:20;;;;;;;;;;;31.80;60.90;;;;;;4909496;29;19927;-65
2023/06/09 15:10:52;;;;;;;;;;;31.90;59.60;;;;;;4910130;29;19933;-65
2023/06/09 15:13:23;;;;;;;;;;;32.10;59.80;;;;;;4910600;29;19931;-65
2023/06/09 15:15:50;;;;;;;;;;;32.40;59.10;;;;;;4909965;29;19931;-65
2023/06/09 15:18:22;;;;;;;;;;;32.70;57.90;;;;;;4923533;29;19938;-65
2023/06/09 15:20:49;;;;;;;;;;;32.80;58.20;;;;;;4909144;29;19931;-65
2023/06/09 15:23:16;;;;;;;;;;;33.10;56.80;;;;;;4897326;29;19970;-65
2023/06/09 15:25:47;;;;;;;;;;;33.50;56.90;;;;;;4916344;29;20029;-65
2023/06/09 15:28:20;;;;;;;;;;;33.50;55.40;;;;;;4900075;29;19928;-65
2023/06/09 15:30:52;;;;;;;;;;;33.70;55.00;;;;;;4921411;29;19966;-65
2023/06/09 15:33:24;;;;;;;;;;;33.70;54.30;;;;;;4926368;29;20014;-65
2023/06/09 15:35:56;;;;;;;;;;;33.80;54.40;;;;;;4915103;29;19927;-65
2023/06/09 15:38:32;;;;;;;;;;;34.10;53.80;;;;;;4914627;29;19927;-65
2023/06/09 15:41:04;;;;;;;;;;;34.20;53.60;;;;;;4906599;29;20383;-65
2023/06/09 15:43:37;;;;;;;;;;;34.30;52.10;;;;;;4904884;29;19932;-65